Terminal Aerodrome Forecast
Issued by NWS

Home | Current Version | Previous Version | Text Only | Print | Product List | Glossary On
Versions: 1 2 3 4 5 6 7 8 9 10 11 12 13 14 15
000
FTAK31 PAJN 181700
TAFASI
TAF
PASI 181725Z 1818/1918 12014KT P6SM -RA SCT025 OVC045 WS020/13040KT
     FM182100 13018G27KT 5SM -RA BR BKN025 OVC040 WS020/16040KT
     FM190100 16014G22KT P6SM -SHRA SCT020 OVC030
     FM190800 18028G38KT 4SM RA BR BKN015 OVC025 WS020/20050KT
     FM191500 21018G28KT P6SM -SHRA BKN020 OVC030=

USA.gov is the U.S. government's official web portal to all federal, state and local government web resources and services.